createdAt,value
2018-11-27T00:01:12.478Z,23.73
2018-11-27T00:03:47.214Z,25.73
2018-11-27T00:06:16.800Z,22.80
2018-11-27T00:08:46.654Z,25.40
2018-11-27T00:11:16.160Z,26.10
2018-11-27T00:13:44.635Z,24.90
2018-11-27T00:16:13.634Z,23.27
2018-11-27T00:18:42.795Z,21.93
2018-11-27T00:21:12.172Z,24.47
2018-11-27T00:23:41.713Z,24.07
2018-11-27T00:26:10.727Z,25.50
2018-11-27T00:28:40.339Z,24.30
2018-11-27T00:31:08.764Z,24.33
2018-11-27T00:33:38.339Z,24.73
2018-11-27T00:36:08.712Z,23.93
2018-11-27T00:38:37.767Z,26.53
2018-11-27T00:41:07.341Z,25.23
2018-11-27T00:43:36.505Z,24.73
2018-11-27T00:46:05.034Z,28.30
2018-11-27T00:48:34.643Z,25.27
2018-11-27T00:51:05.750Z,23.93
2018-11-27T00:53:35.536Z,25.43
2018-11-27T00:56:05.061Z,25.37
2018-11-27T00:58:34.776Z,24.67
2018-11-27T01:01:05.425Z,27.33
2018-11-27T01:03:34.513Z,26.30
2018-11-27T01:06:04.005Z,26.27
2018-11-27T01:08:32.875Z,24.83
2018-11-27T01:11:01.317Z,26.67
2018-11-27T01:13:29.984Z,29.13
2018-11-27T01:15:58.913Z,26.37
2018-11-27T01:18:27.364Z,27.47
2018-11-27T01:20:56.433Z,27.37
2018-11-27T01:23:25.134Z,25.43
2018-11-27T01:25:54.177Z,27.57
2018-11-27T01:28:23.128Z,26.50
2018-11-27T01:30:52.432Z,28.60
2018-11-27T01:33:29.796Z,25.57
2018-11-27T01:35:58.601Z,27.53
2018-11-27T01:38:27.348Z,28.80
2018-11-27T01:40:55.992Z,25.50
2018-11-27T01:43:24.743Z,27.63
2018-11-27T01:45:53.909Z,28.30
2018-11-27T01:48:22.702Z,26.40
2018-11-27T01:50:51.429Z,28.33
2018-11-27T01:53:19.887Z,25.53
2018-11-27T01:55:48.331Z,26.17
2018-11-27T01:58:17.167Z,26.07
2018-11-27T02:00:46.057Z,27.23
2018-11-27T02:03:14.434Z,28.73
2018-11-27T02:05:42.905Z,28.17
2018-11-27T02:08:11.828Z,24.43
2018-11-27T02:10:40.661Z,30.47
2018-11-27T02:13:09.347Z,26.23
2018-11-27T02:15:37.798Z,24.70
2018-11-27T02:18:07.963Z,28.67
2018-11-27T02:20:37.281Z,27.27
2018-11-27T02:23:06.659Z,26.17
2018-11-27T02:25:35.511Z,26.83
2018-11-27T02:28:04.165Z,27.63
2018-11-27T02:30:32.926Z,28.07
2018-11-27T02:33:01.630Z,27.27
2018-11-27T02:35:30.379Z,28.17
2018-11-27T02:37:59.549Z,30.00
2018-11-27T02:40:28.102Z,25.37
2018-11-27T02:42:57.607Z,26.23
2018-11-27T02:45:26.634Z,29.17
2018-11-27T02:47:56.071Z,26.23
2018-11-27T02:50:25.545Z,27.10
2018-11-27T02:52:54.756Z,25.00
2018-11-27T02:55:24.584Z,25.23
2018-11-27T02:57:53.391Z,26.73
2018-11-27T03:00:25.926Z,27.40
2018-11-27T03:02:55.514Z,30.03
2018-11-27T03:05:31.392Z,26.50
2018-11-27T03:08:00.299Z,28.50
2018-11-27T03:10:28.725Z,29.47
2018-11-27T03:12:57.518Z,30.17
2018-11-27T03:15:26.514Z,28.93
2018-11-27T03:17:55.605Z,30.27
2018-11-27T03:20:25.578Z,34.90
2018-11-27T03:22:54.187Z,28.37
2018-11-27T03:25:23.818Z,29.63
2018-11-27T03:27:53.781Z,30.97
2018-11-27T03:30:23.804Z,39.03
2018-11-27T03:32:52.765Z,33.17
2018-11-27T03:35:22.720Z,37.90
2018-11-27T03:37:51.699Z,34.53
2018-11-27T03:40:22.617Z,36.93
2018-11-27T03:42:51.109Z,34.47
2018-11-27T03:45:20.547Z,33.90
2018-11-27T03:48:20.402Z,35.33
2018-11-27T03:50:49.245Z,39.53
2018-11-27T03:53:18.597Z,38.93
2018-11-27T03:55:49.099Z,37.00
2018-11-27T03:58:17.822Z,40.17
2018-11-27T04:00:47.134Z,40.70
2018-11-27T04:03:15.913Z,38.03
2018-11-27T04:05:45.123Z,39.80
2018-11-27T04:08:14.071Z,41.73
2018-11-27T04:10:42.619Z,43.23
2018-11-27T04:13:11.071Z,49.03
2018-11-27T04:15:39.613Z,40.63
2018-11-27T04:18:08.106Z,41.00
2018-11-27T04:20:36.600Z,44.60
2018-11-27T04:23:05.183Z,51.00
2018-11-27T04:25:33.718Z,44.00
2018-11-27T04:28:02.150Z,43.50
2018-11-27T04:30:32.157Z,45.07
2018-11-27T04:33:00.959Z,46.10
2018-11-27T04:35:30.432Z,43.53
2018-11-27T04:37:59.689Z,40.83
2018-11-27T04:40:28.671Z,45.53
2018-11-27T04:42:57.721Z,44.47
2018-11-27T04:45:27.394Z,52.03
2018-11-27T04:47:56.672Z,48.10
2018-11-27T04:50:25.676Z,48.30
2018-11-27T04:52:54.570Z,47.87
2018-11-27T04:55:23.418Z,48.20
2018-11-27T05:01:26.013Z,49.80
2018-11-27T05:03:55.921Z,57.33
2018-11-27T05:06:25.770Z,53.50
2018-11-27T05:08:56.228Z,61.70
2018-11-27T05:11:27.467Z,60.83
2018-11-27T05:13:56.592Z,54.83
2018-11-27T05:16:27.255Z,64.07
2018-11-27T05:18:57.684Z,62.27
2018-11-27T05:21:27.781Z,65.63
2018-11-27T05:23:58.099Z,60.80
2018-11-27T05:26:27.610Z,68.93
2018-11-27T05:28:57.583Z,78.90
2018-11-27T05:31:28.015Z,60.93
2018-11-27T05:33:57.846Z,107.63
2018-11-27T05:36:27.882Z,98.43
2018-11-27T05:38:57.809Z,74.97
2018-11-27T05:41:27.818Z,96.43
2018-11-27T05:43:58.460Z,74.53
2018-11-27T05:46:29.080Z,73.00
2018-11-27T05:48:59.564Z,73.00
2018-11-27T05:51:30.386Z,75.73
2018-11-27T05:54:00.877Z,73.40
2018-11-27T05:56:31.447Z,71.63
2018-11-27T05:59:02.186Z,69.23
2018-11-27T06:01:30.799Z,65.30
2018-11-27T06:04:00.950Z,77.10
2018-11-27T06:06:31.898Z,78.67
2018-11-27T06:09:01.547Z,78.87
2018-11-27T06:11:30.921Z,66.63
2018-11-27T06:13:59.447Z,66.90
2018-11-27T06:16:28.906Z,78.00
2018-11-27T06:18:57.458Z,80.03
2018-11-27T06:21:28.612Z,73.30
2018-11-27T06:23:59.910Z,70.23
2018-11-27T06:26:30.608Z,79.27
2018-11-27T06:29:01.397Z,81.30
2018-11-27T06:31:31.550Z,75.57
2018-11-27T06:34:00.417Z,73.73
2018-11-27T06:36:37.803Z,73.17
2018-11-27T06:39:08.813Z,77.70
2018-11-27T06:41:37.394Z,79.70
2018-11-27T06:44:08.642Z,83.03
2018-11-27T06:46:37.398Z,73.97
2018-11-27T06:49:08.327Z,76.27
2018-11-27T06:51:36.800Z,72.80
2018-11-27T06:54:06.537Z,73.03
2018-11-27T06:56:35.188Z,72.70
2018-11-27T06:59:03.725Z,67.07
2018-11-27T07:01:32.330Z,78.20
2018-11-27T07:04:00.724Z,69.33
2018-11-27T07:06:30.559Z,77.93
2018-11-27T07:08:59.168Z,73.90
2018-11-27T07:11:27.599Z,81.23
2018-11-27T07:13:56.068Z,66.70
2018-11-27T07:16:24.524Z,72.47
2018-11-27T07:18:53.001Z,74.90
2018-11-27T07:21:21.384Z,71.87
2018-11-27T07:23:50.554Z,81.60
2018-11-27T07:26:19.024Z,76.87
2018-11-27T07:28:47.529Z,77.77
2018-11-27T07:31:16.185Z,87.00
2018-11-27T07:33:44.646Z,77.70
2018-11-27T07:36:13.148Z,81.43
2018-11-27T07:38:41.914Z,80.97
2018-11-27T07:41:10.703Z,78.77
2018-11-27T07:43:39.697Z,77.37
2018-11-27T07:46:08.948Z,84.23
2018-11-27T07:48:37.708Z,72.53
2018-11-27T07:51:07.849Z,69.07
2018-11-27T07:53:37.205Z,73.33
2018-11-27T07:56:06.628Z,70.67
2018-11-27T07:58:35.305Z,77.23
2018-11-27T08:01:04.222Z,70.47
2018-11-27T08:03:33.097Z,69.77
2018-11-27T08:06:02.043Z,64.60
2018-11-27T08:08:31.027Z,62.53
2018-11-27T08:10:59.967Z,58.57
2018-11-27T08:13:28.879Z,60.77
2018-11-27T08:15:58.319Z,56.97
2018-11-27T08:18:27.364Z,58.73
2018-11-27T08:20:56.268Z,58.23
2018-11-27T08:23:25.059Z,69.17
2018-11-27T08:25:53.866Z,64.07
2018-11-27T08:28:22.729Z,57.57
2018-11-27T08:30:51.833Z,53.70
2018-11-27T08:33:20.739Z,57.60
2018-11-27T08:35:50.279Z,62.07
2018-11-27T08:38:49.547Z,54.00
2018-11-27T08:41:18.403Z,57.10
2018-11-27T08:43:47.573Z,50.83
2018-11-27T08:46:16.704Z,52.93
2018-11-27T08:48:46.201Z,49.80
2018-11-27T08:51:14.974Z,57.23
2018-11-27T08:53:43.932Z,50.87
2018-11-27T08:56:12.845Z,53.43
2018-11-27T08:58:41.819Z,58.73
2018-11-27T09:01:11.226Z,52.37
2018-11-27T09:03:40.531Z,52.50
2018-11-27T09:06:09.487Z,54.23
2018-11-27T09:08:38.528Z,49.70
2018-11-27T09:11:07.739Z,47.53
2018-11-27T09:13:37.444Z,48.47
2018-11-27T09:16:07.120Z,51.03
2018-11-27T09:18:36.430Z,53.23
2018-11-27T09:21:05.232Z,55.63
2018-11-27T09:23:34.179Z,51.10
2018-11-27T09:26:02.933Z,44.00
2018-11-27T09:28:31.762Z,40.30
2018-11-27T09:31:00.846Z,44.40
2018-11-27T09:33:29.881Z,42.87
2018-11-27T09:35:58.677Z,46.53
2018-11-27T09:38:27.420Z,43.10
2018-11-27T09:40:56.000Z,46.60
2018-11-27T09:43:24.516Z,44.50
2018-11-27T09:45:53.066Z,40.47
2018-11-27T09:48:21.616Z,43.33
2018-11-27T09:50:50.064Z,47.47
2018-11-27T09:53:18.856Z,43.50
2018-11-27T09:55:47.676Z,39.53
2018-11-27T09:58:16.521Z,38.93
2018-11-27T10:00:45.314Z,43.67
2018-11-27T10:03:15.529Z,44.37
2018-11-27T10:05:44.395Z,45.20
2018-11-27T10:08:13.291Z,41.17
2018-11-27T10:10:42.204Z,40.07
2018-11-27T10:13:11.050Z,47.40
2018-11-27T10:15:39.800Z,41.90
2018-11-27T10:18:08.840Z,43.67
2018-11-27T10:20:39.912Z,38.73
2018-11-27T10:23:12.580Z,40.37
2018-11-27T10:25:41.337Z,38.33
2018-11-27T10:28:10.168Z,36.37
2018-11-27T10:30:39.345Z,38.63
2018-11-27T10:33:11.396Z,37.77
2018-11-27T10:35:45.405Z,33.33
2018-11-27T10:38:15.257Z,32.17
2018-11-27T10:40:43.944Z,28.20
2018-11-27T10:43:12.443Z,32.60
2018-11-27T10:45:40.928Z,31.30
2018-11-27T10:48:09.589Z,27.93
2018-11-27T10:50:38.522Z,32.23
2018-11-27T10:53:08.929Z,27.90
2018-11-27T10:55:37.871Z,34.17
2018-11-27T10:58:06.731Z,32.97
2018-11-27T11:00:40.404Z,31.03
2018-11-27T11:03:24.943Z,32.30
2018-11-27T11:05:55.286Z,34.40
2018-11-27T11:08:23.843Z,34.20
2018-11-27T11:10:52.505Z,30.03
2018-11-27T11:13:22.001Z,32.00
2018-11-27T11:15:50.943Z,32.97
2018-11-27T11:18:19.576Z,33.73
2018-11-27T11:20:48.274Z,35.63
2018-11-27T11:23:16.831Z,34.27
2018-11-27T11:25:45.317Z,33.77
2018-11-27T11:28:13.675Z,33.63
2018-11-27T11:30:42.095Z,34.33
2018-11-27T11:33:10.861Z,37.50
2018-11-27T11:35:39.358Z,33.93
2018-11-27T11:38:07.757Z,37.43
2018-11-27T11:40:36.792Z,32.87
2018-11-27T11:43:06.028Z,31.00
2018-11-27T11:45:34.431Z,38.20
2018-11-27T11:48:03.365Z,29.80
2018-11-27T11:50:33.215Z,35.20
2018-11-27T11:53:07.856Z,33.00
2018-11-27T11:55:36.780Z,31.07
2018-11-27T11:58:06.045Z,34.43
2018-11-27T12:00:38.190Z,30.80
2018-11-27T12:03:07.917Z,35.50
2018-11-27T12:05:38.249Z,38.30
2018-11-27T12:08:07.860Z,39.57
2018-11-27T12:10:37.473Z,38.63
2018-11-27T12:13:07.744Z,37.57
2018-11-27T12:15:37.610Z,33.57
2018-11-27T12:18:07.247Z,33.63
2018-11-27T12:20:36.038Z,39.27
2018-11-27T12:23:05.630Z,40.37
2018-11-27T12:25:34.386Z,32.93
2018-11-27T12:28:03.225Z,35.13
2018-11-27T12:30:32.137Z,37.17
2018-11-27T12:33:00.831Z,30.23
2018-11-27T12:35:29.729Z,35.60
2018-11-27T12:37:58.670Z,35.90
2018-11-27T12:40:28.691Z,32.50
2018-11-27T12:42:57.713Z,38.57
2018-11-27T12:45:29.037Z,35.17
2018-11-27T12:47:58.878Z,36.30
2018-11-27T12:50:38.694Z,33.93
2018-11-27T12:53:08.584Z,29.03
2018-11-27T12:55:39.810Z,34.17
2018-11-27T12:58:08.774Z,32.73
2018-11-27T13:00:37.533Z,36.33
2018-11-27T13:03:06.709Z,29.83
2018-11-27T13:05:38.963Z,35.23
2018-11-27T13:08:23.532Z,36.67
2018-11-27T13:10:52.268Z,38.80
2018-11-27T13:13:20.877Z,35.00
2018-11-27T13:15:49.528Z,35.87
2018-11-27T13:18:18.161Z,32.37
2018-11-27T13:20:46.769Z,34.90
2018-11-27T13:23:15.510Z,34.27
2018-11-27T13:25:44.114Z,33.30
2018-11-27T13:28:14.014Z,35.40
2018-11-27T13:30:46.987Z,38.87
2018-11-27T13:33:23.501Z,34.70
2018-11-27T13:35:52.689Z,36.93
2018-11-27T13:38:21.091Z,32.37
2018-11-27T13:40:49.876Z,31.83
2018-11-27T13:43:22.860Z,35.30
2018-11-27T13:45:51.688Z,35.77
2018-11-27T13:48:20.911Z,34.47
2018-11-27T13:50:49.600Z,35.83
2018-11-27T13:53:18.228Z,32.73
2018-11-27T13:55:46.741Z,33.03
2018-11-27T13:58:15.189Z,33.33
2018-11-27T14:00:43.617Z,34.93
2018-11-27T14:03:12.141Z,31.67
2018-11-27T14:05:40.627Z,33.23
2018-11-27T14:08:10.048Z,29.97
2018-11-27T14:10:39.232Z,30.20
2018-11-27T14:13:09.166Z,29.30
2018-11-27T14:15:38.289Z,30.20
2018-11-27T14:18:07.919Z,26.93
2018-11-27T14:20:36.973Z,25.83
2018-11-27T14:23:06.328Z,25.23
2018-11-27T14:25:34.997Z,28.73
2018-11-27T14:28:03.777Z,31.20
2018-11-27T14:30:32.539Z,26.70
2018-11-27T14:33:01.273Z,27.80
2018-11-27T14:35:30.349Z,26.53
2018-11-27T14:37:59.020Z,24.67
2018-11-27T14:40:29.095Z,27.77
2018-11-27T14:42:57.533Z,27.93
2018-11-27T14:45:27.111Z,28.97
2018-11-27T14:47:56.693Z,28.53
2018-11-27T14:50:25.152Z,26.10
2018-11-27T14:52:53.701Z,29.23
2018-11-27T14:55:28.323Z,28.30
2018-11-27T14:57:57.220Z,27.47
2018-11-27T15:00:27.777Z,32.17
2018-11-27T15:02:57.324Z,25.30
2018-11-27T15:05:32.216Z,27.73
2018-11-27T15:08:01.067Z,26.77
2018-11-27T15:10:30.157Z,27.87
2018-11-27T15:12:58.578Z,31.43
2018-11-27T15:15:27.210Z,25.40
2018-11-27T15:17:57.277Z,30.43
2018-11-27T15:20:25.843Z,26.93
2018-11-27T15:22:54.355Z,22.90
2018-11-27T15:25:22.842Z,26.47
2018-11-27T15:27:51.778Z,28.73
2018-11-27T15:30:23.229Z,25.87
2018-11-27T15:32:52.896Z,28.00
2018-11-27T15:35:21.357Z,27.37
2018-11-27T15:37:51.723Z,25.03
2018-11-27T15:40:24.413Z,22.30
2018-11-27T15:42:53.263Z,24.60
2018-11-27T15:45:26.838Z,24.23
2018-11-27T15:47:55.511Z,25.00
2018-11-27T15:50:26.543Z,24.33
2018-11-27T15:53:25.581Z,26.70
2018-11-27T15:55:54.132Z,25.20
2018-11-27T15:58:24.151Z,25.90
2018-11-27T16:00:53.825Z,24.13
2018-11-27T16:03:24.313Z,23.20
2018-11-27T16:05:54.562Z,23.43
2018-11-27T16:08:24.677Z,24.20
2018-11-27T16:10:53.499Z,27.27
2018-11-27T16:13:24.405Z,23.10
2018-11-27T16:15:54.632Z,22.30
2018-11-27T16:18:25.415Z,24.87
2018-11-27T16:20:54.959Z,24.53
2018-11-27T16:23:25.904Z,25.33
2018-11-27T16:25:55.422Z,25.47
2018-11-27T16:28:26.694Z,30.63
2018-11-27T16:30:57.236Z,21.40
2018-11-27T16:33:26.380Z,23.40
2018-11-27T16:35:58.137Z,25.37
2018-11-27T16:38:31.384Z,21.43
2018-11-27T16:41:00.336Z,25.53
2018-11-27T16:43:29.111Z,25.40
2018-11-27T16:45:57.612Z,24.70
2018-11-27T16:48:26.518Z,24.90
2018-11-27T16:50:56.707Z,27.70
2018-11-27T16:53:25.608Z,24.97
2018-11-27T16:55:54.077Z,27.80
2018-11-27T16:58:22.526Z,31.27
2018-11-27T17:00:51.019Z,25.53
2018-11-27T17:03:19.515Z,29.17
2018-11-27T17:05:47.937Z,22.50
2018-11-27T17:08:16.534Z,27.47
2018-11-27T17:10:46.421Z,23.87
2018-11-27T17:13:15.918Z,26.27
2018-11-27T17:15:44.440Z,25.70
2018-11-27T17:18:13.877Z,32.73
2018-11-27T17:20:43.915Z,26.10
2018-11-27T17:23:13.884Z,27.77
2018-11-27T17:25:42.291Z,40.37
2018-11-27T17:28:15.297Z,27.83
2018-11-27T17:30:48.634Z,32.90
2018-11-27T17:33:21.533Z,26.50
2018-11-27T17:35:51.186Z,29.50
2018-11-27T17:38:20.575Z,37.63
2018-11-27T17:40:50.171Z,33.10
2018-11-27T17:43:18.565Z,29.63
2018-11-27T17:45:47.119Z,30.47
2018-11-27T17:48:15.653Z,35.43
2018-11-27T17:50:44.148Z,29.83
2018-11-27T17:53:12.658Z,31.27
2018-11-27T17:55:41.791Z,30.93
2018-11-27T17:58:10.765Z,32.57
2018-11-27T18:00:39.361Z,32.60
2018-11-27T18:03:09.100Z,30.60
2018-11-27T18:05:37.569Z,32.07
2018-11-27T18:08:07.331Z,29.87
2018-11-27T18:10:36.485Z,31.53
2018-11-27T18:13:07.595Z,34.80
2018-11-27T18:15:38.577Z,30.57
2018-11-27T18:18:09.367Z,32.73
2018-11-27T18:20:39.608Z,31.07
2018-11-27T18:23:09.373Z,30.27
2018-11-27T18:25:38.348Z,31.77
2018-11-27T18:28:07.973Z,33.27
2018-11-27T18:30:38.157Z,33.20
2018-11-27T18:33:08.033Z,32.07
2018-11-27T18:35:38.361Z,31.13
2018-11-27T18:38:08.199Z,34.23
2018-11-27T18:40:38.425Z,40.10
2018-11-27T18:43:07.643Z,31.30
2018-11-27T18:45:37.193Z,32.70
2018-11-27T18:48:06.610Z,32.87
2018-11-27T18:50:36.246Z,32.23
2018-11-27T18:53:05.101Z,31.97
2018-11-27T18:55:33.962Z,32.67
2018-11-27T18:58:04.542Z,36.67
2018-11-27T19:00:33.783Z,30.63
2018-11-27T19:03:02.257Z,34.30
2018-11-27T19:05:31.702Z,32.67
2018-11-27T19:08:00.175Z,34.93
2018-11-27T19:10:31.951Z,35.07
2018-11-27T19:13:00.834Z,32.63
2018-11-27T19:15:32.988Z,32.77
2018-11-27T19:18:03.536Z,32.23
2018-11-27T19:20:33.087Z,33.87
2018-11-27T19:23:02.517Z,27.87
2018-11-27T19:25:31.381Z,30.30
2018-11-27T19:28:02.265Z,34.70
2018-11-27T19:30:32.263Z,38.40
2018-11-27T19:32:59.050Z,32.53
2018-11-27T19:35:27.681Z,30.57
2018-11-27T19:37:57.001Z,30.23
2018-11-27T19:40:26.996Z,33.63
2018-11-27T19:42:57.141Z,34.27
2018-11-27T19:45:27.282Z,31.03
2018-11-27T19:47:56.257Z,33.33
2018-11-27T19:50:24.796Z,33.00
2018-11-27T19:52:56.101Z,32.03
2018-11-27T19:55:24.544Z,33.30
2018-11-27T19:57:55.196Z,33.23
2018-11-27T20:00:26.880Z,31.17
2018-11-27T20:02:55.734Z,30.53
2018-11-27T20:05:26.442Z,34.50
2018-11-27T20:07:54.905Z,35.90
2018-11-27T20:10:27.114Z,32.53
2018-11-27T20:12:55.586Z,31.93
2018-11-27T20:15:26.082Z,32.00
2018-11-27T20:17:56.004Z,32.40
2018-11-27T20:20:25.528Z,33.40
2018-11-27T20:22:54.751Z,32.13
2018-11-27T20:28:24.697Z,29.20
2018-11-27T20:30:54.263Z,35.33
2018-11-27T20:33:24.703Z,32.77
2018-11-27T20:35:56.047Z,30.13
2018-11-27T20:38:26.277Z,32.43
2018-11-27T20:40:56.461Z,30.07
2018-11-27T20:43:27.415Z,32.73
2018-11-27T20:45:56.444Z,35.77
2018-11-27T20:48:25.527Z,32.57
2018-11-27T20:50:55.821Z,35.20
2018-11-27T20:53:24.319Z,36.67
2018-11-27T20:55:54.241Z,34.40
2018-11-27T20:58:23.850Z,35.90
2018-11-27T21:00:55.108Z,35.17
2018-11-27T21:03:26.039Z,43.10
2018-11-27T21:05:54.987Z,37.77
2018-11-27T21:11:08.383Z,37.93
2018-11-27T21:13:35.082Z,34.77
2018-11-27T21:16:03.674Z,32.33
2018-11-27T21:18:34.101Z,40.00
2018-11-27T21:21:04.762Z,40.00
2018-11-27T21:23:33.407Z,39.50
2018-11-27T21:26:06.246Z,38.77
2018-11-27T21:28:35.789Z,36.13
2018-11-27T21:31:06.779Z,42.30
2018-11-27T21:33:36.715Z,40.23
2018-11-27T21:36:05.804Z,45.77
2018-11-27T21:38:34.413Z,40.27
2018-11-27T21:41:03.403Z,35.83
2018-11-27T21:43:33.309Z,40.40
2018-11-27T21:46:02.889Z,45.63
2018-11-27T21:48:33.105Z,42.13
2018-11-27T21:51:03.158Z,39.47
2018-11-27T21:53:32.821Z,41.37
2018-11-27T21:56:02.211Z,40.67
2018-11-27T21:58:34.420Z,38.97
2018-11-27T22:01:03.069Z,45.17
2018-11-27T22:03:32.889Z,42.47
2018-11-27T22:06:02.286Z,45.10
2018-11-27T22:08:30.869Z,43.23
2018-11-27T22:11:02.756Z,42.70
2018-11-27T22:13:33.713Z,42.73
2018-11-27T22:16:02.334Z,48.50
2018-11-27T22:18:30.991Z,39.80
2018-11-27T22:20:59.490Z,46.33
2018-11-27T22:23:30.031Z,43.90
2018-11-27T22:26:11.340Z,40.77
2018-11-27T22:29:12.016Z,50.27
2018-11-27T22:31:41.189Z,47.63
2018-11-27T22:34:09.987Z,44.27
2018-11-27T22:36:38.601Z,50.97
2018-11-27T22:39:08.965Z,47.00
2018-11-27T22:41:40.295Z,46.23
2018-11-27T22:44:09.114Z,50.20
2018-11-27T22:46:40.337Z,49.27
2018-11-27T22:49:11.333Z,47.27
2018-11-27T22:51:42.334Z,52.03
2018-11-27T22:54:12.403Z,48.07
2018-11-27T22:56:42.576Z,48.73
2018-11-27T22:59:13.300Z,54.67
2018-11-27T23:01:43.132Z,52.17
2018-11-27T23:04:11.846Z,47.30
2018-11-27T23:06:42.037Z,49.87
2018-11-27T23:09:11.440Z,46.83
2018-11-27T23:11:41.452Z,47.60
2018-11-27T23:14:10.857Z,55.50
2018-11-27T23:16:41.590Z,54.33
2018-11-27T23:19:11.811Z,46.90
2018-11-27T23:21:42.277Z,50.93
2018-11-27T23:24:13.588Z,56.90
2018-11-27T23:26:43.489Z,57.20
2018-11-27T23:29:13.043Z,47.27
2018-11-27T23:31:42.477Z,55.87
2018-11-27T23:34:12.377Z,51.70
2018-11-27T23:36:41.668Z,55.03
2018-11-27T23:39:11.232Z,52.03
2018-11-27T23:41:40.837Z,54.80
2018-11-27T23:44:10.203Z,51.63
2018-11-27T23:46:41.556Z,49.57
2018-11-27T23:49:11.812Z,47.07
2018-11-27T23:51:42.952Z,58.17
2018-11-27T23:54:13.586Z,51.43
2018-11-27T23:56:48.599Z,53.50
2018-11-27T23:59:14.522Z,50.83
